createdAt,value
2023-04-06T00:00:12.223Z,7.38
2023-04-06T00:02:38.821Z,6.60
2023-04-06T00:05:05.797Z,8.07
2023-04-06T00:07:32.394Z,7.97
2023-04-06T00:09:58.910Z,8.65
2023-04-06T00:12:25.426Z,7.50
2023-04-06T00:14:51.959Z,6.75
2023-04-06T00:17:18.709Z,8.02
2023-04-06T00:19:45.287Z,7.18
2023-04-06T00:22:11.902Z,7.32
2023-04-06T00:24:38.509Z,6.97
2023-04-06T00:27:05.022Z,7.80
2023-04-06T00:29:31.602Z,7.38
2023-04-06T00:31:58.181Z,7.28
2023-04-06T00:34:24.743Z,6.97
2023-04-06T00:36:51.320Z,7.03
2023-04-06T00:39:19.732Z,7.07
2023-04-06T00:41:51.718Z,7.47
2023-04-06T00:44:18.759Z,6.70
2023-04-06T00:46:45.595Z,8.20
2023-04-06T00:49:12.459Z,7.15
2023-04-06T00:51:39.020Z,6.43
2023-04-06T00:54:05.657Z,7.57
2023-04-06T00:56:32.777Z,6.97
2023-04-06T00:58:59.764Z,8.30
2023-04-06T01:01:26.387Z,6.93
2023-04-06T01:03:53.306Z,7.63
2023-04-06T01:06:19.849Z,7.88
2023-04-06T01:08:46.456Z,7.40
2023-04-06T01:11:13.005Z,6.25
2023-04-06T01:13:39.588Z,7.50
2023-04-06T01:16:06.442Z,7.13
2023-04-06T01:18:33.050Z,6.97
2023-04-06T01:20:59.598Z,6.65
2023-04-06T01:23:26.184Z,7.25
2023-04-06T01:25:52.743Z,6.53
2023-04-06T01:28:19.286Z,6.32
2023-04-06T01:30:45.804Z,6.28
2023-04-06T01:33:12.356Z,7.15
2023-04-06T01:35:38.971Z,6.95
2023-04-06T01:38:05.532Z,6.07
2023-04-06T01:40:32.117Z,7.20
2023-04-06T01:42:58.679Z,7.20
2023-04-06T01:45:25.287Z,7.57
2023-04-06T01:47:51.887Z,6.97
2023-04-06T01:50:18.444Z,6.85
2023-04-06T01:52:44.987Z,6.38
2023-04-06T01:55:11.522Z,7.22
2023-04-06T01:57:38.086Z,6.85
2023-04-06T02:00:05.335Z,6.22
2023-04-06T02:02:31.937Z,7.70
2023-04-06T02:04:58.507Z,7.75
2023-04-06T02:07:25.096Z,7.35
2023-04-06T02:09:55.553Z,7.10
2023-04-06T02:12:22.174Z,6.43
2023-04-06T02:14:48.723Z,6.05
2023-04-06T02:17:15.246Z,6.80
2023-04-06T02:19:41.851Z,7.10
2023-04-06T02:22:08.411Z,8.32
2023-04-06T02:24:34.903Z,5.95
2023-04-06T02:27:01.428Z,8.20
2023-04-06T02:29:28.062Z,7.55
2023-04-06T02:31:54.652Z,6.40
2023-04-06T02:34:21.234Z,6.85
2023-04-06T02:36:48.173Z,7.72
2023-04-06T02:39:15.088Z,6.68
2023-04-06T02:41:41.579Z,7.28
2023-04-06T02:44:09.361Z,7.15
2023-04-06T02:46:35.860Z,6.50
2023-04-06T02:49:02.398Z,7.32
2023-04-06T02:51:28.945Z,6.95
2023-04-06T02:53:55.451Z,7.80
2023-04-06T02:56:22.124Z,6.03
2023-04-06T02:58:48.664Z,7.45
2023-04-06T03:01:15.315Z,5.72
2023-04-06T03:03:42.060Z,7.32
2023-04-06T03:06:08.759Z,5.40
2023-04-06T03:08:35.258Z,6.65
2023-04-06T03:11:01.970Z,7.15
2023-04-06T03:13:28.539Z,5.90
2023-04-06T03:15:55.163Z,6.72
2023-04-06T03:18:26.001Z,6.93
2023-04-06T03:20:52.850Z,6.07
2023-04-06T03:23:19.351Z,6.10
2023-04-06T03:25:45.878Z,7.32
2023-04-06T03:28:12.367Z,5.95
2023-04-06T03:30:38.939Z,7.32
2023-04-06T03:33:05.622Z,7.53
2023-04-06T03:35:32.237Z,5.97
2023-04-06T03:37:58.795Z,6.15
2023-04-06T03:40:31.151Z,5.50
2023-04-06T03:42:57.887Z,6.13
2023-04-06T03:45:24.523Z,6.10
2023-04-06T03:47:51.081Z,6.85
2023-04-06T03:50:17.766Z,6.82
2023-04-06T03:52:44.263Z,6.57
2023-04-06T03:55:10.769Z,7.28
2023-04-06T03:57:37.277Z,6.20
2023-04-06T04:00:04.464Z,6.30
2023-04-06T04:02:31.133Z,6.57
2023-04-06T04:04:57.752Z,7.00
2023-04-06T04:07:24.320Z,6.47
2023-04-06T04:09:50.905Z,5.97
2023-04-06T04:12:17.421Z,7.70
2023-04-06T04:14:43.955Z,6.55
2023-04-06T04:17:10.529Z,5.97
2023-04-06T04:19:37.081Z,7.70
2023-04-06T04:22:03.638Z,6.72
2023-04-06T04:24:30.187Z,6.72
2023-04-06T04:26:56.810Z,6.38
2023-04-06T04:29:23.532Z,5.43
2023-04-06T04:31:50.562Z,6.03
2023-04-06T04:34:17.135Z,6.88
2023-04-06T04:36:43.682Z,6.43
2023-04-06T04:39:10.291Z,7.32
2023-04-06T04:41:36.900Z,6.85
2023-04-06T04:44:03.425Z,7.05
2023-04-06T04:46:29.928Z,6.05
2023-04-06T04:48:56.714Z,7.60
2023-04-06T04:51:23.258Z,8.10
2023-04-06T04:53:49.750Z,8.38
2023-04-06T04:56:16.254Z,5.97
2023-04-06T04:58:42.766Z,7.30
2023-04-06T05:01:09.549Z,7.68
2023-04-06T05:03:37.608Z,7.70
2023-04-06T05:06:04.511Z,7.53
2023-04-06T05:08:31.034Z,6.60
2023-04-06T05:10:57.653Z,10.02
2023-04-06T05:13:24.206Z,7.35
2023-04-06T05:15:50.868Z,7.95
2023-04-06T05:18:17.616Z,8.23
2023-04-06T05:20:44.250Z,8.50
2023-04-06T05:23:10.792Z,9.88
2023-04-06T05:25:37.351Z,13.57
2023-04-06T05:28:04.005Z,10.25
2023-04-06T05:30:30.635Z,37.45
2023-04-06T05:32:57.395Z,35.70
2023-04-06T05:35:23.991Z,17.85
2023-04-06T05:37:50.550Z,12.15
2023-04-06T05:40:17.212Z,8.38
2023-04-06T05:42:43.912Z,7.07
2023-04-06T05:45:11.921Z,7.65
2023-04-06T05:47:38.513Z,7.75
2023-04-06T05:50:05.751Z,7.75
2023-04-06T05:52:32.263Z,7.57
2023-04-06T05:54:58.765Z,8.13
2023-04-06T05:57:25.366Z,6.82
2023-04-06T05:59:51.921Z,6.93
2023-04-06T06:02:18.565Z,6.60
2023-04-06T06:04:45.170Z,7.00
2023-04-06T06:07:11.705Z,6.95
2023-04-06T06:09:38.226Z,7.20
2023-04-06T06:12:04.964Z,7.85
2023-04-06T06:14:31.546Z,6.47
2023-04-06T06:16:58.072Z,7.60
2023-04-06T06:19:24.631Z,7.75
2023-04-06T06:21:51.218Z,6.30
2023-04-06T06:24:17.807Z,7.13
2023-04-06T06:26:44.351Z,7.63
2023-04-06T06:29:10.906Z,8.05
2023-04-06T06:31:37.565Z,7.60
2023-04-06T06:34:04.114Z,8.38
2023-04-06T06:36:30.610Z,7.70
2023-04-06T06:38:57.229Z,7.78
2023-04-06T06:41:23.871Z,9.43
2023-04-06T06:43:50.387Z,8.75
2023-04-06T06:46:16.983Z,8.05
2023-04-06T06:48:43.631Z,9.20
2023-04-06T06:51:10.286Z,7.50
2023-04-06T06:53:36.817Z,8.10
2023-04-06T06:56:03.424Z,7.55
2023-04-06T06:58:29.936Z,7.50
2023-04-06T07:01:00.237Z,8.30
2023-04-06T07:03:27.011Z,6.88
2023-04-06T07:05:53.613Z,7.50
2023-04-06T07:08:21.835Z,8.25
2023-04-06T07:10:48.609Z,7.80
2023-04-06T07:13:15.776Z,7.13
2023-04-06T07:15:42.320Z,7.15
2023-04-06T07:18:08.953Z,8.00
2023-04-06T07:20:35.549Z,7.60
2023-04-06T07:23:02.156Z,7.40
2023-04-06T07:25:28.793Z,7.72
2023-04-06T07:27:55.393Z,7.50
2023-04-06T07:30:22.028Z,7.97
2023-04-06T07:32:49.101Z,7.40
2023-04-06T07:35:16.241Z,7.63
2023-04-06T07:37:42.846Z,8.25
2023-04-06T07:40:09.891Z,7.43
2023-04-06T07:42:36.431Z,8.80
2023-04-06T07:45:03.104Z,7.75
2023-04-06T07:47:29.752Z,7.97
2023-04-06T07:49:56.462Z,7.78
2023-04-06T07:52:23.019Z,7.45
2023-04-06T07:54:49.601Z,8.15
2023-04-06T07:57:16.250Z,7.88
2023-04-06T07:59:42.930Z,8.05
2023-04-06T08:02:09.633Z,8.40
2023-04-06T08:04:37.076Z,8.13
2023-04-06T08:07:03.718Z,7.97
2023-04-06T08:09:30.249Z,8.52
2023-04-06T08:11:56.751Z,7.55
2023-04-06T08:14:23.288Z,7.65
2023-04-06T08:16:49.831Z,8.30
2023-04-06T08:19:16.413Z,8.40
2023-04-06T08:21:42.998Z,7.65
2023-04-06T08:24:09.802Z,8.20
2023-04-06T08:26:36.566Z,8.30
2023-04-06T08:29:03.321Z,8.90
2023-04-06T08:31:29.903Z,7.80
2023-04-06T08:33:56.502Z,7.70
2023-04-06T08:36:23.322Z,8.38
2023-04-06T08:38:50.272Z,8.60
2023-04-06T08:41:17.496Z,7.68
2023-04-06T08:43:55.715Z,8.00
2023-04-06T08:46:22.495Z,7.68
2023-04-06T08:48:49.350Z,7.68
2023-04-06T08:51:16.516Z,7.90
2023-04-06T08:53:43.021Z,8.38
2023-04-06T08:56:11.499Z,7.85
2023-04-06T08:58:40.750Z,8.52
2023-04-06T09:01:09.392Z,7.70
2023-04-06T09:03:39.245Z,8.07
2023-04-06T09:06:06.996Z,8.02
2023-04-06T09:08:34.788Z,7.65
2023-04-06T09:11:05.040Z,8.75
2023-04-06T09:13:31.915Z,8.07
2023-04-06T09:16:06.087Z,8.05
2023-04-06T09:18:33.831Z,7.88
2023-04-06T09:21:04.532Z,8.57
2023-04-06T09:23:32.915Z,7.65
2023-04-06T09:26:10.549Z,7.65
2023-04-06T09:28:52.614Z,7.45
2023-04-06T09:31:27.071Z,6.63
2023-04-06T09:33:54.323Z,5.88
2023-04-06T09:36:29.949Z,6.32
2023-04-06T09:38:58.743Z,6.57
2023-04-06T09:41:33.807Z,6.32
2023-04-06T09:44:11.892Z,6.32
2023-04-06T09:46:58.013Z,5.95
2023-04-06T09:49:31.117Z,6.20
2023-04-06T09:52:03.305Z,5.97
2023-04-06T09:54:31.984Z,5.90
2023-04-06T09:57:22.799Z,5.88
2023-04-06T10:00:06.824Z,5.45
2023-04-06T10:02:42.463Z,6.85
2023-04-06T10:05:10.514Z,5.97
2023-04-06T10:07:46.134Z,6.00
2023-04-06T10:10:16.568Z,5.90
2023-04-06T10:12:45.105Z,5.55
2023-04-06T10:15:12.009Z,6.10
2023-04-06T10:17:38.687Z,6.43
2023-04-06T10:20:12.564Z,6.68
2023-04-06T10:22:46.310Z,7.15
2023-04-06T10:25:12.894Z,6.57
2023-04-06T10:27:39.480Z,6.57
2023-04-06T10:30:07.316Z,6.75
2023-04-06T10:32:38.362Z,6.50
2023-04-06T10:35:12.791Z,6.57
2023-04-06T10:37:50.965Z,5.53
2023-04-06T10:40:22.555Z,5.50
2023-04-06T10:42:49.269Z,5.50
2023-04-06T10:45:26.732Z,5.53
2023-04-06T10:47:54.518Z,5.97
2023-04-06T10:50:22.203Z,5.38
2023-04-06T10:53:00.135Z,5.50
2023-04-06T10:55:28.335Z,5.60
2023-04-06T10:57:55.117Z,5.40
2023-04-06T11:00:21.935Z,6.07
2023-04-06T11:02:48.483Z,5.93
2023-04-06T11:05:16.174Z,4.57
2023-04-06T11:07:43.106Z,4.90
2023-04-06T11:10:16.686Z,4.40
2023-04-06T11:12:55.842Z,4.30
2023-04-06T11:15:22.654Z,4.07
2023-04-06T11:17:49.884Z,4.43
2023-04-06T11:20:16.690Z,2.67
2023-04-06T11:22:52.843Z,2.83
2023-04-06T11:25:19.748Z,3.17
2023-04-06T11:27:48.293Z,2.90
2023-04-06T11:30:15.581Z,3.17
2023-04-06T11:32:43.672Z,2.70
2023-04-06T11:35:21.753Z,2.53
2023-04-06T11:37:52.699Z,3.58
2023-04-06T11:40:23.370Z,4.13
2023-04-06T11:42:56.368Z,3.65
2023-04-06T11:45:23.695Z,5.22
2023-04-06T11:47:58.425Z,4.90
2023-04-06T11:50:25.087Z,4.90
2023-04-06T11:53:09.553Z,4.50
2023-04-06T11:55:39.788Z,5.68
2023-04-06T11:58:06.477Z,4.18
2023-04-06T12:00:33.082Z,4.80
2023-04-06T12:02:59.742Z,5.03
2023-04-06T12:05:26.366Z,4.95
2023-04-06T12:07:52.903Z,4.70
2023-04-06T12:10:19.525Z,5.22
2023-04-06T12:12:46.071Z,5.80
2023-04-06T12:15:12.614Z,3.55
2023-04-06T12:17:39.183Z,5.78
2023-04-06T12:20:18.107Z,4.93
2023-04-06T12:22:51.592Z,4.68
2023-04-06T12:25:18.245Z,3.97
2023-04-06T12:27:44.740Z,5.07
2023-04-06T12:30:11.662Z,4.47
2023-04-06T12:32:38.187Z,4.32
2023-04-06T12:35:05.071Z,3.75
2023-04-06T12:37:31.595Z,4.15
2023-04-06T12:39:58.142Z,3.35
2023-04-06T12:42:24.683Z,4.85
2023-04-06T12:44:51.202Z,4.35
2023-04-06T12:47:17.696Z,4.00
2023-04-06T12:49:44.302Z,4.78
2023-04-06T12:52:11.484Z,3.17
2023-04-06T12:54:38.020Z,6.45
2023-04-06T12:57:04.573Z,6.30
2023-04-06T12:59:31.198Z,4.03
2023-04-06T13:01:57.852Z,5.68
2023-04-06T13:04:24.431Z,5.07
2023-04-06T13:06:50.944Z,6.10
2023-04-06T13:09:17.422Z,5.57
2023-04-06T13:11:43.960Z,5.95
2023-04-06T13:14:10.607Z,5.28
2023-04-06T13:16:37.175Z,5.13
2023-04-06T13:19:03.850Z,4.40
2023-04-06T13:21:30.384Z,5.28
2023-04-06T13:23:56.929Z,5.72
2023-04-06T13:26:23.448Z,5.63
2023-04-06T13:28:50.046Z,5.70
2023-04-06T13:31:16.631Z,6.05
2023-04-06T13:33:43.216Z,6.30
2023-04-06T13:36:09.843Z,5.75
2023-04-06T13:38:36.531Z,5.85
2023-04-06T13:41:03.069Z,6.60
2023-04-06T13:43:29.607Z,6.43
2023-04-06T13:45:56.687Z,7.13
2023-04-06T13:48:23.287Z,7.25
2023-04-06T13:50:49.858Z,6.05
2023-04-06T13:53:16.346Z,6.88
2023-04-06T13:55:42.862Z,6.93
2023-04-06T13:58:09.687Z,6.43
2023-04-06T14:00:36.780Z,7.03
2023-04-06T14:03:03.715Z,7.22
2023-04-06T14:05:34.064Z,6.55
2023-04-06T14:08:00.729Z,7.32
2023-04-06T14:10:27.288Z,6.95
2023-04-06T14:12:53.789Z,5.78
2023-04-06T14:15:20.265Z,5.97
2023-04-06T14:17:46.847Z,5.32
2023-04-06T14:20:13.399Z,3.47
2023-04-06T14:22:39.983Z,4.90
2023-04-06T14:25:07.021Z,5.20
2023-04-06T14:27:33.526Z,5.50
2023-04-06T14:30:00.014Z,4.78
2023-04-06T14:32:26.581Z,4.13
2023-04-06T14:34:53.162Z,3.83
2023-04-06T14:37:19.709Z,3.40
2023-04-06T14:39:46.237Z,3.65
2023-04-06T14:42:12.782Z,3.42
2023-04-06T14:44:39.397Z,3.83
2023-04-06T14:47:06.529Z,5.25
2023-04-06T14:49:33.233Z,4.75
2023-04-06T14:52:00.595Z,3.03
2023-04-06T14:54:27.284Z,4.60
2023-04-06T14:56:53.775Z,5.63
2023-04-06T14:59:20.270Z,5.53
2023-04-06T15:01:46.904Z,5.25
2023-04-06T15:04:13.630Z,5.75
2023-04-06T15:06:40.319Z,5.68
2023-04-06T15:09:06.893Z,5.22
2023-04-06T15:11:33.427Z,6.22
2023-04-06T15:14:01.546Z,5.15
2023-04-06T15:16:28.136Z,6.15
2023-04-06T15:18:54.635Z,6.60
2023-04-06T15:21:21.273Z,5.25
2023-04-06T15:23:47.888Z,5.40
2023-04-06T15:26:14.497Z,5.75
2023-04-06T15:28:41.127Z,4.80
2023-04-06T15:31:20.636Z,5.43
2023-04-06T15:33:50.966Z,4.72
2023-04-06T15:36:28.998Z,4.75
2023-04-06T15:38:56.535Z,4.20
2023-04-06T15:41:23.076Z,4.85
2023-04-06T15:43:50.153Z,4.63
2023-04-06T15:46:16.891Z,4.10
2023-04-06T15:48:43.682Z,4.45
2023-04-06T15:51:10.478Z,4.18
2023-04-06T15:53:37.596Z,4.43
2023-04-06T15:56:06.721Z,4.28
2023-04-06T15:58:34.145Z,5.07
2023-04-06T16:01:00.748Z,4.10
2023-04-06T16:08:25.846Z,3.90
2023-04-06T16:10:52.385Z,3.72
2023-04-06T16:13:18.914Z,3.58
2023-04-06T16:15:49.231Z,3.45
2023-04-06T16:18:15.808Z,2.47
2023-04-06T16:20:42.383Z,3.20
2023-04-06T16:23:08.941Z,2.17
2023-04-06T16:25:35.460Z,2.80
2023-04-06T16:28:02.012Z,2.33
2023-04-06T16:30:28.502Z,2.20
2023-04-06T16:32:55.085Z,2.10
2023-04-06T16:35:21.799Z,2.50
2023-04-06T16:37:48.712Z,1.67
2023-04-06T16:40:15.566Z,1.80
2023-04-06T16:42:45.254Z,2.45
2023-04-06T16:45:12.494Z,2.20
2023-04-06T16:47:39.196Z,1.90
2023-04-06T16:50:06.740Z,2.10
2023-04-06T16:52:34.150Z,2.42
2023-04-06T16:55:02.226Z,2.38
2023-04-06T16:57:28.749Z,2.65
2023-04-06T16:59:56.344Z,2.33
2023-04-06T17:02:24.302Z,2.80
2023-04-06T17:04:51.093Z,2.50
2023-04-06T17:07:17.747Z,2.10
2023-04-06T17:09:44.348Z,2.28
2023-04-06T17:12:10.830Z,2.85
2023-04-06T17:14:37.310Z,2.58
2023-04-06T17:17:03.903Z,3.08
2023-04-06T17:19:30.448Z,3.35
2023-04-06T17:21:57.015Z,2.47
2023-04-06T17:24:23.487Z,2.72
2023-04-06T17:26:49.967Z,2.95
2023-04-06T17:29:16.504Z,2.60
2023-04-06T17:31:45.883Z,2.55
2023-04-06T17:34:12.402Z,2.60
2023-04-06T17:36:38.912Z,2.83
2023-04-06T17:39:05.468Z,2.53
2023-04-06T17:41:32.006Z,2.55
2023-04-06T17:43:58.898Z,3.13
2023-04-06T17:46:25.551Z,3.05
2023-04-06T17:48:52.182Z,2.38
2023-04-06T17:51:18.910Z,2.42
2023-04-06T17:53:46.170Z,2.90
2023-04-06T17:56:12.758Z,2.83
2023-04-06T17:58:40.439Z,2.63
2023-04-06T18:01:07.817Z,2.70
2023-04-06T18:03:34.999Z,2.05
2023-04-06T18:06:15.356Z,2.75
2023-04-06T18:08:42.133Z,2.60
2023-04-06T18:11:15.258Z,3.40
2023-04-06T18:13:41.794Z,3.45
2023-04-06T18:16:08.445Z,3.40
2023-04-06T18:18:35.060Z,2.70
2023-04-06T18:21:05.663Z,2.35
2023-04-06T18:23:33.690Z,2.38
2023-04-06T18:26:06.974Z,2.63
2023-04-06T18:28:33.822Z,2.63
2023-04-06T18:31:00.708Z,2.30
2023-04-06T18:33:27.328Z,2.63
2023-04-06T18:35:54.491Z,1.70
2023-04-06T18:38:21.026Z,2.22
2023-04-06T18:40:47.572Z,1.95
2023-04-06T18:43:15.451Z,1.80
2023-04-06T18:45:42.022Z,2.40
2023-04-06T18:48:08.778Z,2.10
2023-04-06T18:50:35.334Z,2.25
2023-04-06T18:53:02.089Z,2.65
2023-04-06T18:55:31.597Z,2.45
2023-04-06T18:57:58.114Z,2.55
2023-04-06T19:00:24.720Z,2.72
2023-04-06T19:02:51.556Z,2.45
2023-04-06T19:05:18.561Z,2.92
2023-04-06T19:07:45.134Z,2.85
2023-04-06T19:10:11.916Z,3.00
2023-04-06T19:12:40.452Z,2.88
2023-04-06T19:15:08.129Z,3.40
2023-04-06T19:17:35.352Z,3.13
2023-04-06T19:20:02.504Z,3.53
2023-04-06T19:22:29.202Z,3.38
2023-04-06T19:24:55.781Z,3.60
2023-04-06T19:27:22.675Z,3.72
2023-04-06T19:29:56.342Z,4.00
2023-04-06T19:32:23.284Z,3.80
2023-04-06T19:34:50.593Z,4.18
2023-04-06T19:37:17.415Z,3.90
2023-04-06T19:39:44.021Z,4.20
2023-04-06T19:42:11.308Z,4.00
2023-04-06T19:44:39.571Z,3.90
2023-04-06T19:47:12.390Z,3.80
2023-04-06T19:49:39.883Z,3.90
2023-04-06T19:52:07.955Z,3.95
2023-04-06T19:54:34.641Z,3.53
2023-04-06T19:57:02.026Z,3.70
2023-04-06T19:59:29.174Z,3.67
2023-04-06T20:01:56.047Z,3.58
2023-04-06T20:04:23.963Z,4.30
2023-04-06T20:06:51.400Z,4.20
2023-04-06T20:09:17.973Z,4.95
2023-04-06T20:11:44.732Z,4.78
2023-04-06T20:14:11.370Z,4.85
2023-04-06T20:16:38.183Z,4.30
2023-04-06T20:19:05.019Z,4.60
2023-04-06T20:21:31.755Z,4.68
2023-04-06T20:23:58.322Z,4.45
2023-04-06T20:26:25.079Z,3.13
2023-04-06T20:28:51.767Z,4.65
2023-04-06T20:31:18.563Z,4.55
2023-04-06T20:33:48.166Z,4.63
2023-04-06T20:36:14.893Z,5.32
2023-04-06T20:38:41.491Z,5.13
2023-04-06T20:41:08.314Z,4.50
2023-04-06T20:43:35.010Z,4.72
2023-04-06T20:46:02.198Z,5.20
2023-04-06T20:48:31.139Z,4.82
2023-04-06T20:50:59.432Z,6.40
2023-04-06T20:53:26.144Z,4.82
2023-04-06T20:55:56.277Z,5.22
2023-04-06T20:58:26.389Z,3.55
2023-04-06T21:00:53.253Z,5.07
2023-04-06T21:03:19.999Z,4.72
2023-04-06T21:05:57.050Z,4.47
2023-04-06T21:08:23.578Z,4.90
2023-04-06T21:10:50.108Z,4.68
2023-04-06T21:13:16.889Z,4.18
2023-04-06T21:15:45.640Z,4.68
2023-04-06T21:18:12.360Z,4.45
2023-04-06T21:20:38.905Z,3.63
2023-04-06T21:23:05.517Z,5.00
2023-04-06T21:25:32.105Z,4.93
2023-04-06T21:27:58.801Z,4.65
2023-04-06T21:30:27.044Z,5.25
2023-04-06T21:32:53.913Z,5.47
2023-04-06T21:35:22.564Z,5.65
2023-04-06T21:37:50.405Z,6.00
2023-04-06T21:40:17.085Z,5.10
2023-04-06T21:42:46.853Z,5.43
2023-04-06T21:45:13.564Z,5.65
2023-04-06T21:47:40.220Z,6.00
2023-04-06T21:50:10.370Z,5.60
2023-04-06T21:52:37.209Z,6.00
2023-04-06T21:55:04.683Z,5.05
2023-04-06T21:57:31.285Z,6.05
2023-04-06T21:59:57.825Z,5.65
2023-04-06T22:02:24.513Z,5.82
2023-04-06T22:04:51.189Z,5.85
2023-04-06T22:07:17.769Z,6.38
2023-04-06T22:09:44.310Z,6.68
2023-04-06T22:12:10.831Z,5.07
2023-04-06T22:14:37.341Z,6.18
2023-04-06T22:17:03.854Z,7.05
2023-04-06T22:19:30.365Z,7.43
2023-04-06T22:21:57.043Z,6.45
2023-04-06T22:24:23.616Z,7.70
2023-04-06T22:26:50.148Z,6.90
2023-04-06T22:29:16.641Z,6.88
2023-04-06T22:31:45.458Z,7.13
2023-04-06T22:34:13.240Z,6.90
2023-04-06T22:36:39.791Z,7.90
2023-04-06T22:39:06.445Z,7.30
2023-04-06T22:41:32.924Z,8.43
2023-04-06T22:43:59.433Z,7.57
2023-04-06T22:46:25.971Z,7.88
2023-04-06T22:48:52.499Z,7.93
2023-04-06T22:51:19.112Z,7.70
2023-04-06T22:53:45.728Z,7.68
2023-04-06T22:56:12.230Z,8.38
2023-04-06T22:58:38.705Z,8.18
2023-04-06T23:01:05.465Z,8.63
2023-04-06T23:03:32.149Z,9.57
2023-04-06T23:05:58.718Z,8.52
2023-04-06T23:08:25.261Z,9.30
2023-04-06T23:10:51.795Z,9.18
2023-04-06T23:13:18.339Z,9.23
2023-04-06T23:15:44.869Z,9.30
2023-04-06T23:18:11.348Z,9.80
2023-04-06T23:20:38.935Z,9.68
2023-04-06T23:23:05.446Z,9.95
2023-04-06T23:25:31.980Z,10.15
2023-04-06T23:27:58.514Z,9.63
2023-04-06T23:30:25.020Z,10.38
2023-04-06T23:32:51.485Z,10.13
2023-04-06T23:35:18.050Z,9.13
2023-04-06T23:37:44.564Z,9.98
2023-04-06T23:40:11.422Z,9.80
2023-04-06T23:42:37.903Z,10.30
2023-04-06T23:45:04.866Z,9.95
2023-04-06T23:47:31.600Z,10.13
2023-04-06T23:49:58.564Z,11.05
2023-04-06T23:52:25.087Z,9.35
2023-04-06T23:54:51.566Z,10.00
2023-04-06T23:57:18.074Z,11.25
2023-04-06T23:59:44.913Z,11.25
